Time;durP1;ratioP1;P1;durP2;ratioP2;P2;SDS_P1;SDS_P2;PMS_P1;PMS_P2;Temp;Humidity;BMP_temperature;BMP_pressure;BME280_temperature;BME280_humidity;BME280_pressure;Samples;Min_cycle;Max_cycle;Signal;HPM_P1;HPM_P2
2022/01/17 00:01:52;;;;;;;14.60;9.43;;;;;;;1.05;100.00;95835.94;5074743;28;20204;-74
2022/01/17 00:04:38;;;;;;;11.97;8.47;;;;;;;1.06;100.00;95842.84;5077522;28;20193;-74
2022/01/17 00:07:29;;;;;;;15.03;9.30;;;;;;;1.07;100.00;95837.09;5076430;28;20220;-75
2022/01/17 00:10:15;;;;;;;14.13;8.47;;;;;;;1.09;100.00;95845.56;5061383;28;20193;-73
2022/01/17 00:13:01;;;;;;;11.67;7.87;;;;;;;1.13;100.00;95835.63;5091386;28;20662;-73
2022/01/17 00:15:51;;;;;;;13.93;8.80;;;;;;;1.16;100.00;95831.41;5073276;28;20213;-74
2022/01/17 00:21:23;;;;;;;10.70;8.00;;;;;;;1.26;100.00;95822.63;5086657;28;20193;-75
2022/01/17 00:24:09;;;;;;;14.90;8.30;;;;;;;1.19;99.53;95839.50;5090799;28;20224;-74
2022/01/17 00:26:55;;;;;;;12.93;8.20;;;;;;;1.20;100.00;95837.59;5078431;28;20232;-74
2022/01/17 00:29:42;;;;;;;12.60;8.10;;;;;;;1.21;98.24;95839.13;5077167;28;20545;-73
2022/01/17 00:32:28;;;;;;;10.77;7.80;;;;;;;1.19;98.16;95830.66;5092859;28;20250;-73
2022/01/17 00:35:13;;;;;;;11.77;7.80;;;;;;;1.20;97.11;95830.25;5085137;28;20212;-72
2022/01/17 00:37:59;;;;;;;14.03;7.47;;;;;;;1.24;97.39;95828.38;5085775;28;20229;-73
2022/01/17 00:40:46;;;;;;;11.97;7.10;;;;;;;1.19;97.09;95828.72;5077936;28;20618;-72
2022/01/17 00:43:32;;;;;;;11.07;7.57;;;;;;;1.15;96.69;95837.94;5089482;28;20185;-73
2022/01/17 00:46:17;;;;;;;10.30;6.67;;;;;;;1.23;96.20;95842.22;5081219;28;20209;-74
2022/01/17 00:49:04;;;;;;;10.17;7.27;;;;;;;1.27;94.97;95839.53;5091655;28;20273;-74
2022/01/17 00:51:50;;;;;;;11.73;7.37;;;;;;;1.22;94.30;95840.69;5084601;28;20781;-72
2022/01/17 00:54:36;;;;;;;12.27;8.10;;;;;;;1.24;94.95;95859.88;5071548;28;20591;-74
2022/01/17 00:57:21;;;;;;;9.73;7.20;;;;;;;1.27;93.90;95853.78;5095272;28;20192;-73
2022/01/17 01:00:09;;;;;;;11.27;7.33;;;;;;;1.33;93.43;95857.66;5095784;28;20680;-74
2022/01/17 01:02:55;;;;;;;10.83;6.90;;;;;;;1.40;95.01;95860.41;5077580;28;20190;-74
2022/01/17 01:05:41;;;;;;;8.03;6.63;;;;;;;1.38;92.89;95849.22;5091558;28;20285;-73
2022/01/17 01:08:27;;;;;;;11.07;7.20;;;;;;;1.38;91.62;95861.91;5084528;28;20242;-75
2022/01/17 01:11:13;;;;;;;11.47;7.37;;;;;;;1.46;92.30;95842.00;5089582;28;20268;-73
2022/01/17 01:13:59;;;;;;;10.43;6.73;;;;;;;1.44;91.53;95853.13;5090705;28;20194;-73
2022/01/17 01:16:45;;;;;;;9.70;7.27;;;;;;;1.35;90.54;95860.75;5088376;28;20219;-75
2022/01/17 01:19:39;;;;;;;8.60;6.70;;;;;;;1.40;91.04;95860.41;5060114;28;20196;-74
2022/01/17 01:28:34;;;;;;;9.30;6.50;;;;;;;1.40;90.16;95868.47;5077888;28;20261;-73
2022/01/17 01:31:31;;;;;;;8.90;6.13;;;;;;;1.43;89.15;95870.41;5090499;28;20858;-73
2022/01/17 01:34:25;;;;;;;8.50;5.80;;;;;;;1.53;89.60;95872.41;5056984;28;20229;-75
2022/01/17 01:37:12;;;;;;;12.30;6.33;;;;;;;1.39;88.93;95872.31;5077058;28;20576;-72
2022/01/17 01:39:58;;;;;;;8.57;6.13;;;;;;;1.48;89.35;95890.84;5090074;28;20562;-72
2022/01/17 01:42:45;;;;;;;9.50;6.07;;;;;;;1.37;90.07;95869.22;5074132;28;20235;-75
2022/01/17 01:45:31;;;;;;;8.13;5.57;;;;;;;1.48;89.36;95870.06;5091060;28;20365;-76
2022/01/17 01:48:20;;;;;;;8.43;5.60;;;;;;;1.40;89.70;95889.22;5074620;28;20189;-73
2022/01/17 01:51:07;;;;;;;8.47;5.53;;;;;;;1.52;91.10;95870.06;5077296;28;20272;-73
2022/01/17 01:53:53;;;;;;;7.20;5.20;;;;;;;1.39;90.75;95868.84;5090174;28;20197;-73
2022/01/17 01:56:43;;;;;;;6.63;4.70;;;;;;;1.39;91.77;95872.31;5090962;28;20232;-74
2022/01/17 01:59:29;;;;;;;6.93;4.87;;;;;;;1.54;92.17;95876.66;5056449;28;20197;-75
2022/01/17 02:02:16;;;;;;;7.33;5.23;;;;;;;1.53;94.31;95874.34;5069621;28;20715;-75
2022/01/17 02:05:04;;;;;;;7.87;5.30;;;;;;;1.55;95.65;95872.00;5069612;28;20284;-73
2022/01/17 02:07:50;;;;;;;7.07;4.67;;;;;;;1.47;98.57;95865.06;5082816;28;20649;-74
2022/01/17 02:10:36;;;;;;;8.90;5.17;;;;;;;1.41;100.00;95858.50;5091583;28;20193;-75
2022/01/17 02:13:22;;;;;;;7.67;5.20;;;;;;;1.33;100.00;95863.03;5091055;28;20726;-76
2022/01/17 02:16:12;;;;;;;6.40;4.90;;;;;;;1.32;100.00;95864.19;5091881;28;20216;-74
2022/01/17 02:18:58;;;;;;;7.13;5.50;;;;;;;1.16;100.00;95844.84;5068840;28;20627;-75
2022/01/17 02:21:47;;;;;;;7.10;5.40;;;;;;;1.21;100.00;95857.94;5095495;28;20242;-75
2022/01/17 02:24:33;;;;;;;6.90;4.50;;;;;;;1.29;100.00;95850.72;5092724;28;20201;-74
2022/01/17 02:27:19;;;;;;;6.50;5.13;;;;;;;1.15;100.00;95833.31;5093025;28;20234;-74
2022/01/17 02:30:06;;;;;;;6.07;4.73;;;;;;;1.21;100.00;95847.97;5094319;28;20199;-74
2022/01/17 02:32:53;;;;;;;6.97;4.97;;;;;;;1.18;100.00;95837.19;5092536;28;20205;-74
2022/01/17 02:35:39;;;;;;;8.10;4.83;;;;;;;1.14;100.00;95842.53;5078593;28;20197;-75
2022/01/17 02:38:25;;;;;;;7.47;5.47;;;;;;;1.16;100.00;95842.94;5080865;28;20200;-74
2022/01/17 02:41:14;;;;;;;6.60;5.00;;;;;;;1.18;100.00;95846.03;5079478;28;20203;-74
2022/01/17 02:44:02;;;;;;;7.97;5.33;;;;;;;1.19;100.00;95844.88;5074553;28;20200;-74
2022/01/17 02:46:48;;;;;;;9.00;5.07;;;;;;;1.13;100.00;95834.84;5092219;28;20221;-74
2022/01/17 02:49:34;;;;;;;6.70;5.10;;;;;;;1.17;100.00;95849.84;5095594;28;20583;-75
2022/01/17 02:52:20;;;;;;;7.90;5.60;;;;;;;1.21;100.00;95847.97;5094751;28;20185;-75
2022/01/17 02:55:07;;;;;;;9.50;5.53;;;;;;;1.28;100.00;95847.25;5092262;28;20184;-73
2022/01/17 02:57:53;;;;;;;7.70;5.83;;;;;;;1.13;100.00;95826.78;5093404;28;20254;-74
2022/01/17 03:00:39;;;;;;;10.40;5.67;;;;;;;1.19;100.00;95826.03;5093373;28;20204;-74
2022/01/17 03:03:30;;;;;;;8.53;6.30;;;;;;;1.16;100.00;95824.09;5087750;28;20204;-73
2022/01/17 03:06:17;;;;;;;9.07;6.07;;;;;;;1.18;100.00;95813.75;5063343;28;20225;-75
2022/01/17 03:09:03;;;;;;;7.83;5.47;;;;;;;1.19;100.00;95809.91;5093555;28;20223;-73
2022/01/17 03:11:49;;;;;;;8.03;5.40;;;;;;;1.15;100.00;95794.91;5093071;28;20681;-75
2022/01/17 03:14:35;;;;;;;7.77;6.20;;;;;;;1.23;100.00;95801.84;5073732;28;20311;-74
2022/01/17 03:17:20;;;;;;;9.03;6.30;;;;;;;1.12;100.00;95790.28;5089624;28;20193;-74
2022/01/17 03:20:07;;;;;;;9.13;6.00;;;;;;;1.13;100.00;95792.59;5091210;28;20666;-73
2022/01/17 03:22:53;;;;;;;11.03;6.50;;;;;;;1.26;100.00;95798.41;5068359;28;20734;-73
2022/01/17 03:25:39;;;;;;;7.60;5.30;;;;;;;1.16;100.00;95791.81;5090114;28;20221;-71
2022/01/17 03:28:25;;;;;;;8.80;6.37;;;;;;;1.04;100.00;95785.97;5090146;28;20295;-74
2022/01/17 03:31:11;;;;;;;9.73;5.80;;;;;;;1.07;100.00;95806.72;5062514;28;20196;-75
2022/01/17 03:33:57;;;;;;;9.10;6.30;;;;;;;1.06;100.00;95805.97;5080080;28;20197;-73
2022/01/17 03:37:27;;;;;;;9.07;6.20;;;;;;;1.02;100.00;95818.63;5671973;22;20255;-76
2022/01/17 03:40:14;;;;;;;9.37;5.90;;;;;;;1.11;100.00;95827.16;5065190;28;20673;-73
2022/01/17 03:43:00;;;;;;;9.20;6.33;;;;;;;1.11;100.00;95829.06;5067783;28;20205;-74
2022/01/17 03:45:46;;;;;;;10.57;5.83;;;;;;;1.02;100.00;95829.38;5085451;28;20209;-74
2022/01/17 03:48:33;;;;;;;9.00;5.37;;;;;;;1.08;100.00;95833.28;5040589;28;20202;-73
2022/01/17 03:51:19;;;;;;;8.53;5.57;;;;;;;0.95;100.00;95828.56;5046978;28;20191;-73
2022/01/17 03:54:06;;;;;;;7.23;5.03;;;;;;;0.90;100.00;95834.28;5053455;28;20190;-74
2022/01/17 03:56:52;;;;;;;7.63;5.60;;;;;;;0.94;100.00;95832.38;5045178;28;20687;-73
2022/01/17 03:59:38;;;;;;;7.23;5.57;;;;;;;0.83;100.00;95826.16;5047530;28;20201;-74
2022/01/17 04:02:31;;;;;;;8.40;5.73;;;;;;;0.80;100.00;95821.50;5039217;28;20220;-74
2022/01/17 04:05:17;;;;;;;7.17;5.00;;;;;;;0.79;100.00;95809.22;5035354;28;20520;-74
2022/01/17 04:08:03;;;;;;;8.27;5.73;;;;;;;0.70;100.00;95782.66;5023114;28;20226;-74
2022/01/17 04:10:53;;;;;;;7.40;5.23;;;;;;;0.74;100.00;95780.00;5056137;28;20198;-75
2022/01/17 04:13:39;;;;;;;7.60;5.47;;;;;;;0.46;100.00;95745.59;5025731;28;20199;-74
2022/01/17 04:16:27;;;;;;;6.97;5.10;;;;;;;0.60;100.00;95759.16;5028835;28;20695;-74
2022/01/17 04:19:13;;;;;;;7.87;5.60;;;;;;;0.58;100.00;95768.72;5056897;28;20273;-74
2022/01/17 04:22:01;;;;;;;7.63;5.03;;;;;;;0.56;100.00;95768.34;5037897;28;20252;-74
2022/01/17 04:24:46;;;;;;;8.40;6.23;;;;;;;0.61;100.00;95771.44;5056606;28;20263;-74
2022/01/17 04:27:33;;;;;;;8.53;4.90;;;;;;;0.66;100.00;95767.66;5063967;28;20222;-74
2022/01/17 04:30:20;;;;;;;7.87;5.53;;;;;;;0.59;100.00;95770.28;5044632;28;20253;-74
2022/01/17 04:33:06;;;;;;;7.73;5.37;;;;;;;0.67;100.00;95774.56;5052350;28;20198;-73
2022/01/17 04:35:53;;;;;;;8.60;6.37;;;;;;;0.72;100.00;95795.72;5031642;28;20198;-73
2022/01/17 04:38:39;;;;;;;7.47;5.93;;;;;;;0.65;100.00;95798.34;5060920;28;20276;-74
2022/01/17 04:41:36;;;;;;;6.47;4.87;;;;;;;0.73;100.00;95794.59;5047149;28;20189;-74
2022/01/17 04:47:29;;;;;;;7.67;5.13;;;;;;;0.85;100.00;95788.91;5047187;28;20275;-74
2022/01/17 04:50:21;;;;;;;6.83;4.97;;;;;;;0.72;100.00;95798.41;5022614;28;20681;-74
2022/01/17 04:53:08;;;;;;;6.03;4.80;;;;;;;0.73;100.00;95818.78;5041057;28;20204;-74
2022/01/17 04:55:54;;;;;;;6.87;5.07;;;;;;;0.82;100.00;95829.97;5046314;28;20186;-74
2022/01/17 04:58:40;;;;;;;7.80;5.27;;;;;;;0.90;100.00;95848.50;5052570;28;20212;-74
2022/01/17 05:01:26;;;;;;;9.90;4.53;;;;;;;0.95;100.00;95850.09;5028477;28;20194;-74
2022/01/17 05:04:12;;;;;;;6.40;4.67;;;;;;;0.88;100.00;95858.84;5046436;28;20289;-75
2022/01/17 05:06:59;;;;;;;7.50;4.80;;;;;;;1.00;100.00;95868.56;5052059;28;20245;-74
2022/01/17 05:09:46;;;;;;;6.63;4.87;;;;;;;1.02;100.00;95872.41;5048514;28;20201;-74
2022/01/17 05:12:32;;;;;;;5.73;4.20;;;;;;;1.01;100.00;95878.16;5033317;28;20225;-74
2022/01/17 05:15:44;;;;;;;6.50;4.97;;;;;;;1.02;100.00;95864.34;5048097;28;20228;-74
2022/01/17 05:21:22;;;;;;;9.97;4.80;;;;;;;1.09;100.00;95837.50;5052795;28;20190;-74
2022/01/17 05:24:08;;;;;;;7.50;4.80;;;;;;;1.16;100.00;95836.78;5053889;28;20194;-73
2022/01/17 05:26:54;;;;;;;6.70;5.23;;;;;;;1.20;100.00;95824.88;5057397;28;20250;-74
2022/01/17 05:29:40;;;;;;;5.97;4.57;;;;;;;1.26;100.00;95825.31;5050794;28;20596;-74
2022/01/17 05:32:26;;;;;;;6.40;4.60;;;;;;;1.20;100.00;95816.06;5039075;28;20182;-73
2022/01/17 05:35:12;;;;;;;5.63;4.30;;;;;;;1.32;100.00;95813.06;5044966;28;22966;-74
2022/01/17 05:37:58;;;;;;;5.77;4.33;;;;;;;1.30;100.00;95833.41;5046611;28;20239;-74
2022/01/17 05:40:44;;;;;;;4.67;3.83;;;;;;;1.30;100.00;95833.41;5065437;28;20212;-74
2022/01/17 05:43:30;;;;;;;6.67;4.87;;;;;;;1.31;100.00;95837.66;5048776;28;20224;-74
2022/01/17 05:46:16;;;;;;;5.53;4.50;;;;;;;1.32;100.00;95823.84;5041131;28;20217;-74
2022/01/17 05:49:02;;;;;;;7.63;4.67;;;;;;;1.38;100.00;95827.69;5043211;28;20286;-74
2022/01/17 05:51:48;;;;;;;5.73;4.73;;;;;;;1.35;100.00;95841.91;5043222;28;20210;-74
2022/01/17 05:54:35;;;;;;;6.13;4.17;;;;;;;1.37;100.00;95839.63;5066249;28;20654;-74
2022/01/17 05:57:20;;;;;;;4.70;3.80;;;;;;;1.46;100.00;95844.69;5046248;28;20233;-74
2022/01/17 06:00:10;;;;;;;6.67;4.03;;;;;;;1.49;100.00;95844.69;5034733;28;20284;-74
2022/01/17 06:02:56;;;;;;;6.97;5.03;;;;;;;1.44;100.00;95845.06;5035064;28;20266;-74
2022/01/17 06:05:42;;;;;;;4.97;4.03;;;;;;;1.43;100.00;95858.84;5035023;28;20218;-74
2022/01/17 06:08:28;;;;;;;8.13;4.43;;;;;;;1.53;100.00;95867.00;5039894;28;20346;-74
2022/01/17 06:11:13;;;;;;;6.13;4.33;;;;;;;1.47;100.00;95876.59;5074150;28;20319;-74
2022/01/17 06:14:00;;;;;;;7.17;5.10;;;;;;;1.42;100.00;95873.47;5068755;28;20190;-74
2022/01/17 06:16:46;;;;;;;6.00;4.53;;;;;;;1.55;100.00;95869.31;5049924;28;20249;-74
2022/01/17 06:19:32;;;;;;;5.10;3.90;;;;;;;1.54;100.00;95857.81;5062813;28;20201;-74
2022/01/17 06:22:18;;;;;;;6.03;4.70;;;;;;;1.53;100.00;95834.72;5018582;28;20202;-74
2022/01/17 06:25:04;;;;;;;5.50;4.27;;;;;;;1.59;100.00;95829.75;5056141;28;20194;-74
2022/01/17 06:27:50;;;;;;;6.50;4.33;;;;;;;1.63;100.00;95838.63;5073424;28;20260;-73
2022/01/17 06:30:36;;;;;;;6.33;4.70;;;;;;;1.62;100.00;95848.63;5057513;28;20201;-74
2022/01/17 06:33:22;;;;;;;5.40;4.47;;;;;;;1.62;100.00;95867.47;5056301;28;20190;-74
2022/01/17 06:36:08;;;;;;;5.40;4.13;;;;;;;1.62;100.00;95843.22;5050019;28;20194;-74
2022/01/17 06:38:53;;;;;;;5.50;4.20;;;;;;;1.63;100.00;95841.31;5032664;28;20210;-74
2022/01/17 06:41:39;;;;;;;4.63;3.90;;;;;;;1.63;100.00;95854.78;5051083;28;20204;-74
2022/01/17 06:44:25;;;;;;;5.67;3.80;;;;;;;1.68;100.00;95857.88;5055998;28;20206;-74
2022/01/17 06:47:11;;;;;;;5.17;4.13;;;;;;;1.70;100.00;95874.41;5042595;28;20295;-74
2022/01/17 06:49:57;;;;;;;4.77;4.00;;;;;;;1.77;100.00;95861.00;5072780;28;20198;-74
2022/01/17 06:52:44;;;;;;;5.17;3.83;;;;;;;1.73;100.00;95859.44;5056934;28;20228;-74
2022/01/17 06:55:30;;;;;;;4.73;3.93;;;;;;;1.78;100.00;95851.00;5045273;28;20189;-74
2022/01/17 06:58:16;;;;;;;7.07;4.43;;;;;;;1.74;100.00;95855.59;5058061;28;20367;-74
2022/01/17 07:01:05;;;;;;;7.17;3.60;;;;;;;1.76;100.00;95859.47;5056623;28;20674;-74
2022/01/17 07:03:52;;;;;;;5.37;4.07;;;;;;;1.79;100.00;95847.16;5070678;28;20567;-74
2022/01/17 07:06:39;;;;;;;5.50;3.90;;;;;;;1.77;100.00;95844.84;5033091;28;20657;-74
2022/01/17 07:09:25;;;;;;;6.57;3.50;;;;;;;1.75;100.00;95846.38;5052772;28;20186;-74
2022/01/17 07:12:10;;;;;;;5.03;3.90;;;;;;;1.74;100.00;95861.75;5034012;28;20191;-74
2022/01/17 07:14:56;;;;;;;4.33;3.57;;;;;;;1.72;100.00;95850.59;5036266;28;20198;-75
2022/01/17 07:17:42;;;;;;;4.83;3.30;;;;;;;1.79;100.00;95869.47;5047775;28;20218;-75
2022/01/17 07:20:28;;;;;;;4.60;3.97;;;;;;;1.77;100.00;95882.53;5073202;28;20273;-75
2022/01/17 07:23:15;;;;;;;4.33;3.60;;;;;;;1.83;100.00;95899.13;5072961;28;20190;-75
2022/01/17 07:26:00;;;;;;;5.03;3.00;;;;;;;1.88;100.00;95920.31;5050747;28;20219;-75
2022/01/17 07:28:46;;;;;;;4.00;3.30;;;;;;;1.86;100.00;95947.63;5033664;28;20186;-75
2022/01/17 07:31:33;;;;;;;4.97;3.83;;;;;;;1.87;100.00;95984.16;5033775;28;20245;-74
2022/01/17 07:34:19;;;;;;;4.27;3.50;;;;;;;1.94;100.00;95997.69;5061483;28;20247;-75
2022/01/17 07:37:05;;;;;;;4.67;3.00;;;;;;;1.93;100.00;96011.53;5032246;28;20242;-75
2022/01/17 07:39:51;;;;;;;4.03;3.60;;;;;;;1.98;100.00;95987.72;5053891;28;20217;-74
2022/01/17 07:42:36;;;;;;;3.50;3.07;;;;;;;1.99;100.00;95972.31;5045375;28;20285;-75
2022/01/17 07:45:22;;;;;;;5.90;3.30;;;;;;;1.94;100.00;95975.34;5024952;28;20201;-74
2022/01/17 07:48:22;;;;;;;3.47;2.90;;;;;;;1.94;100.00;95983.44;5050005;28;20252;-75
2022/01/17 07:51:08;;;;;;;4.97;3.87;;;;;;;2.00;100.00;96000.81;5062952;28;20233;-74
2022/01/17 07:53:56;;;;;;;4.07;3.33;;;;;;;2.01;100.00;95962.72;5051136;28;20252;-75
2022/01/17 07:56:43;;;;;;;3.73;3.17;;;;;;;2.06;100.00;95969.66;5034774;28;20219;-75
2022/01/17 07:59:30;;;;;;;4.90;3.07;;;;;;;2.03;100.00;95957.72;5071714;28;20197;-74
2022/01/17 08:02:15;;;;;;;4.80;3.53;;;;;;;2.11;100.00;95948.53;5043631;28;20196;-74
2022/01/17 08:05:03;;;;;;;5.43;3.67;;;;;;;2.14;100.00;95957.78;5055946;28;20198;-75
2022/01/17 08:07:49;;;;;;;5.33;4.00;;;;;;;2.13;100.00;95948.16;5064988;28;20284;-75
2022/01/17 08:10:36;;;;;;;5.50;3.60;;;;;;;2.20;100.00;95940.88;5032588;28;20225;-74
2022/01/17 08:13:22;;;;;;;6.20;3.73;;;;;;;2.14;100.00;95941.59;5070689;28;20272;-75
2022/01/17 08:16:08;;;;;;;5.83;4.10;;;;;;;2.12;100.00;95941.97;5053153;28;20185;-74
2022/01/17 08:18:54;;;;;;;5.27;3.90;;;;;;;2.10;100.00;95951.59;5057850;28;20724;-74
2022/01/17 08:21:40;;;;;;;5.40;4.20;;;;;;;2.06;100.00;95975.06;5056906;28;20733;-75
2022/01/17 08:24:26;;;;;;;5.47;4.50;;;;;;;2.02;100.00;95966.19;5056713;28;20212;-75
2022/01/17 08:27:12;;;;;;;6.87;4.00;;;;;;;2.00;100.00;95949.63;5052895;28;20218;-75
2022/01/17 08:29:58;;;;;;;4.43;3.43;;;;;;;2.00;100.00;95944.25;5036380;28;20195;-75
2022/01/17 08:32:44;;;;;;;5.30;3.83;;;;;;;2.01;100.00;95964.63;5023242;28;20193;-74
2022/01/17 08:35:30;;;;;;;4.23;3.83;;;;;;;2.03;100.00;95949.66;5058765;28;20201;-75
2022/01/17 08:38:16;;;;;;;6.43;4.53;;;;;;;2.00;100.00;95958.47;5057612;28;20809;-75
2022/01/17 08:41:02;;;;;;;9.33;4.80;;;;;;;2.03;100.00;95943.47;5072617;28;20278;-75
2022/01/17 08:43:48;;;;;;;5.70;4.20;;;;;;;2.03;100.00;95944.25;5048587;28;20668;-74
2022/01/17 08:46:34;;;;;;;5.47;4.43;;;;;;;2.09;100.00;95952.75;5046111;28;20256;-75
2022/01/17 08:49:20;;;;;;;6.20;4.17;;;;;;;2.13;100.00;95943.53;5041368;28;20647;-75
2022/01/17 08:52:06;;;;;;;5.67;4.00;;;;;;;2.23;100.00;95952.81;5016089;28;20195;-74
2022/01/17 08:54:53;;;;;;;4.93;4.13;;;;;;;2.38;100.00;95968.69;5028741;28;20668;-75
2022/01/17 08:57:39;;;;;;;4.83;3.93;;;;;;;2.42;100.00;95984.88;5017470;28;20297;-75
2022/01/17 09:00:25;;;;;;;5.70;4.30;;;;;;;2.49;100.00;95987.63;5057439;28;20182;-75
2022/01/17 09:03:11;;;;;;;5.30;3.87;;;;;;;2.46;100.00;95983.75;5055389;28;20185;-75
2022/01/17 09:05:56;;;;;;;6.67;4.70;;;;;;;2.51;100.00;95985.31;5045800;28;20367;-75
2022/01/17 09:08:43;;;;;;;8.67;4.73;;;;;;;2.67;100.00;95984.97;5045164;28;20666;-75
2022/01/17 09:11:29;;;;;;;6.03;4.83;;;;;;;2.80;100.00;95970.75;5063652;28;20262;-75
2022/01/17 09:14:15;;;;;;;7.00;4.27;;;;;;;2.88;100.00;95950.78;5030264;28;20192;-75
2022/01/17 09:17:02;;;;;;;7.83;4.43;;;;;;;2.81;100.00;95953.44;5040153;28;20690;-75
2022/01/17 09:19:50;;;;;;;8.77;4.67;;;;;;;2.94;100.00;95954.63;5044487;28;20300;-74
2022/01/17 09:22:36;;;;;;;5.53;4.30;;;;;;;3.04;100.00;95966.59;5051383;28;20731;-75
2022/01/17 09:25:22;;;;;;;7.67;4.13;;;;;;;3.09;100.00;95999.38;5047698;28;20269;-75
2022/01/17 09:28:08;;;;;;;6.37;4.20;;;;;;;3.10;100.00;95998.22;5061221;28;20282;-75
2022/01/17 09:30:54;;;;;;;6.70;4.13;;;;;;;3.09;100.00;95998.63;5057249;28;20198;-75
2022/01/17 09:33:40;;;;;;;7.77;4.80;;;;;;;2.98;100.00;95998.59;5036261;28;20198;-75
2022/01/17 09:36:29;;;;;;;5.87;4.10;;;;;;;2.87;100.00;96035.53;5043586;28;20218;-75
2022/01/17 09:39:15;;;;;;;7.27;5.20;;;;;;;2.95;100.00;96002.06;5055674;28;20635;-75
2022/01/17 09:42:01;;;;;;;5.30;3.97;;;;;;;3.09;100.00;96007.47;5068241;28;20537;-75
2022/01/17 09:44:47;;;;;;;4.03;3.57;;;;;;;2.96;100.00;96002.81;5050008;28;20278;-75
2022/01/17 09:47:34;;;;;;;5.30;4.07;;;;;;;3.04;100.00;95980.84;5047991;28;20273;-75
2022/01/17 09:50:32;;;;;;;6.70;4.23;;;;;;;3.14;100.00;96014.44;5059627;28;20189;-75
2022/01/17 09:53:18;;;;;;;6.37;4.23;;;;;;;3.13;100.00;96005.56;5051505;28;20884;-75
2022/01/17 09:56:06;;;;;;;5.23;3.80;;;;;;;3.23;100.00;96010.22;5044278;28;20189;-75
2022/01/17 09:58:53;;;;;;;5.23;3.93;;;;;;;3.55;100.00;96015.66;5039416;28;20198;-75
2022/01/17 10:01:41;;;;;;;6.23;4.50;;;;;;;3.58;100.00;96004.84;5040161;28;20209;-75
2022/01/17 10:04:27;;;;;;;4.50;3.40;;;;;;;3.56;100.00;96019.91;5051604;28;20198;-75
2022/01/17 10:07:12;;;;;;;6.37;4.43;;;;;;;3.49;100.00;96014.50;5042607;28;20236;-75
2022/01/17 10:09:59;;;;;;;6.40;4.30;;;;;;;3.49;100.00;96001.00;5058170;28;20210;-74
2022/01/17 10:12:45;;;;;;;4.27;3.33;;;;;;;3.37;100.00;95998.66;5023974;28;20226;-74
2022/01/17 10:15:44;;;;;;;4.87;3.70;;;;;;;3.40;100.00;96001.38;5049461;28;20260;-74
2022/01/17 10:18:53;;;;;;;3.80;3.23;;;;;;;3.47;100.00;95987.09;5059108;28;20568;-75
2022/01/17 10:21:45;;;;;;;5.20;3.33;;;;;;;3.54;100.00;95995.22;5049181;28;20235;-75
2022/01/17 10:24:46;;;;;;;4.27;3.77;;;;;;;3.51;100.00;95972.44;5036240;28;20203;-74
2022/01/17 10:28:07;;;;;;;3.70;3.27;;;;;;;3.54;100.00;95965.50;5044655;28;20321;-75
2022/01/17 10:37:01;;;;;;;3.00;2.40;;;;;;;3.58;100.00;95940.03;5063463;28;20608;-74
2022/01/17 10:39:57;;;;;;;3.50;3.03;;;;;;;3.69;100.00;95948.13;5048641;28;20202;-75
2022/01/17 10:42:48;;;;;;;3.57;3.03;;;;;;;3.79;100.00;95970.88;5064268;28;20732;-75
2022/01/17 10:45:42;;;;;;;4.00;2.70;;;;;;;3.91;100.00;95973.97;5042288;28;20247;-75
2022/01/17 10:48:34;;;;;;;3.87;2.67;;;;;;;3.89;100.00;95949.25;5057057;28;20282;-75
2022/01/17 10:51:27;;;;;;;5.33;3.00;;;;;;;3.73;100.00;95979.38;5039591;28;20205;-74
2022/01/17 10:54:15;;;;;;;3.17;2.87;;;;;;;3.57;100.00;95967.44;5036168;28;20835;-75
2022/01/17 10:57:04;;;;;;;5.67;2.80;;;;;;;3.66;100.00;95973.97;5055490;28;20217;-75
2022/01/17 10:59:52;;;;;;;4.87;2.90;;;;;;;3.54;100.00;95970.91;5059940;28;20202;-73
2022/01/17 11:02:42;;;;;;;4.20;3.10;;;;;;;3.55;100.00;95962.41;5045497;28;20194;-74
2022/01/17 11:05:28;;;;;;;3.80;3.00;;;;;;;3.52;100.00;95971.28;5063446;28;20624;-74
2022/01/17 11:08:20;;;;;;;4.67;3.17;;;;;;;3.64;100.00;95978.22;5038021;28;20218;-74
2022/01/17 11:11:08;;;;;;;4.60;3.20;;;;;;;3.66;100.00;95981.31;5045178;28;20663;-74
2022/01/17 11:14:01;;;;;;;3.67;2.67;;;;;;;3.61;100.00;95997.91;5040597;28;20194;-75
2022/01/17 11:16:47;;;;;;;4.87;3.20;;;;;;;3.76;100.00;95998.69;5035104;28;20214;-74
2022/01/17 11:22:43;;;;;;;4.47;2.77;;;;;;;3.97;100.00;95993.28;5061951;28;20312;-74
2022/01/17 11:25:29;;;;;;;4.13;3.00;;;;;;;4.04;100.00;95998.69;5054460;28;20269;-75
2022/01/17 11:28:15;;;;;;;3.20;2.43;;;;;;;3.97;100.00;95980.50;5059183;28;20226;-75
2022/01/17 11:31:06;;;;;;;3.10;2.80;;;;;;;4.15;100.00;95967.75;5052965;28;20201;-74
2022/01/17 11:33:52;;;;;;;4.23;2.10;;;;;;;3.93;100.00;95968.97;5060517;28;20191;-75
2022/01/17 11:36:38;;;;;;;3.73;2.53;;;;;;;4.17;100.00;95959.25;5039507;28;20210;-75
2022/01/17 11:39:24;;;;;;;2.60;2.20;;;;;;;3.87;100.00;95953.53;5064208;28;20251;-75
2022/01/17 11:42:30;;;;;;;2.70;2.30;;;;;;;3.98;100.00;95982.06;5057750;28;20198;-75
2022/01/17 11:45:22;;;;;;;3.33;2.40;;;;;;;4.03;100.00;95968.16;5056966;28;20221;-75
2022/01/17 11:48:30;;;;;;;3.87;2.13;;;;;;;3.97;100.00;95929.16;5031194;28;20224;-75
2022/01/17 11:51:16;;;;;;;2.73;2.40;;;;;;;3.90;100.00;95931.91;5045520;28;20233;-74
2022/01/17 11:54:28;;;;;;;3.07;2.37;;;;;;;3.90;100.00;95934.59;5061640;28;20186;-74
2022/01/17 11:57:21;;;;;;;3.13;2.53;;;;;;;3.89;100.00;95970.88;5032030;28;20214;-74
2022/01/17 12:00:28;;;;;;;3.97;2.83;;;;;;;3.99;100.00;95980.91;5060084;28;21017;-75
2022/01/17 12:03:19;;;;;;;2.60;2.40;;;;;;;4.05;97.94;95976.66;5042691;28;20689;-75
2022/01/17 12:06:23;;;;;;;3.57;2.33;;;;;;;4.24;96.96;95973.50;5059381;28;20221;-74
2022/01/17 12:09:24;;;;;;;4.27;2.60;;;;;;;4.23;96.02;95971.19;5042781;28;20193;-75
2022/01/17 12:12:14;;;;;;;3.13;2.37;;;;;;;4.26;95.72;95982.00;5036502;28;20248;-74
2022/01/17 12:15:05;;;;;;;4.17;2.70;;;;;;;4.15;96.29;95980.50;5051313;28;20218;-74
2022/01/17 12:17:51;;;;;;;3.00;2.70;;;;;;;4.20;94.60;95951.16;5060371;28;20293;-75
2022/01/17 12:20:47;;;;;;;3.27;2.53;;;;;;;4.26;95.20;95946.13;5052407;28;20252;-75
2022/01/17 12:23:32;;;;;;;4.33;2.93;;;;;;;4.23;95.95;95958.47;5049565;28;20331;-75
2022/01/17 12:27:10;;;;;;;3.43;3.10;;;;;;;4.38;95.08;95953.78;5036808;28;20352;-75
2022/01/17 12:30:06;;;;;;;5.83;2.93;;;;;;;5.07;93.46;95951.94;5043967;28;20225;-76
2022/01/17 12:32:53;;;;;;;3.27;2.73;;;;;;;4.74;92.49;95961.38;5043047;28;20469;-75
2022/01/17 12:35:46;;;;;;;3.13;2.70;;;;;;;4.75;92.49;95946.69;5040585;28;20194;-75
2022/01/17 12:38:40;;;;;;;3.77;2.67;;;;;;;4.83;91.52;95947.44;5040848;28;20290;-75
2022/01/17 12:41:32;;;;;;;4.03;2.80;;;;;;;4.61;93.11;95943.28;5055462;28;20277;-75
2022/01/17 12:44:26;;;;;;;3.47;2.43;;;;;;;4.38;93.12;95919.41;5050745;28;20225;-75
2022/01/17 12:47:11;;;;;;;6.63;3.20;;;;;;;4.62;92.44;95915.81;5054348;28;20246;-75
2022/01/17 12:50:02;;;;;;;3.70;2.70;;;;;;;4.19;93.09;95924.50;5056252;28;20221;-75
2022/01/17 12:52:51;;;;;;;4.03;2.93;;;;;;;4.03;94.84;95935.72;5050908;28;20192;-75
2022/01/17 12:55:39;;;;;;;6.20;3.37;;;;;;;3.99;96.21;95929.56;5043183;28;20255;-75
2022/01/17 12:58:30;;;;;;;4.77;3.47;;;;;;;3.94;96.39;95918.38;5046393;28;20648;-75
2022/01/17 13:01:18;;;;;;;3.77;2.93;;;;;;;3.94;97.09;95929.94;5048400;28;20190;-75
2022/01/17 13:04:06;;;;;;;5.00;3.57;;;;;;;3.85;97.40;95931.53;5055794;28;20204;-75
2022/01/17 13:06:53;;;;;;;5.07;3.33;;;;;;;3.92;97.27;95934.97;5066452;28;20250;-75
2022/01/17 13:09:40;;;;;;;5.47;4.07;;;;;;;4.10;96.93;95933.03;5060985;28;20280;-76
2022/01/17 13:12:28;;;;;;;11.13;4.03;;;;;;;4.08;96.30;95929.16;5045813;28;20269;-75
2022/01/17 13:15:14;;;;;;;5.03;3.80;;;;;;;4.13;96.71;95956.56;5053377;28;20194;-75
2022/01/17 13:18:00;;;;;;;7.40;3.90;;;;;;;4.11;94.94;95958.88;5048507;28;20217;-75
2022/01/17 13:20:47;;;;;;;5.97;3.97;;;;;;;4.25;96.00;95921.00;5054100;28;20209;-76
2022/01/17 13:23:37;;;;;;;4.60;3.83;;;;;;;4.30;95.46;95909.00;5053889;28;20193;-75
2022/01/17 13:26:25;;;;;;;5.67;4.07;;;;;;;4.33;95.00;95914.41;5051933;28;20301;-75
2022/01/17 13:29:11;;;;;;;5.80;3.70;;;;;;;4.26;94.52;95908.25;5019561;28;20255;-76
2022/01/17 13:32:00;;;;;;;5.33;4.17;;;;;;;4.24;95.88;95911.31;5059065;28;20193;-74
2022/01/17 13:34:46;;;;;;;6.00;4.47;;;;;;;4.13;96.04;95905.19;5039983;28;20229;-74
2022/01/17 13:37:32;;;;;;;5.47;4.27;;;;;;;4.10;95.58;95910.63;5057566;28;20214;-74